Time;durP1;ratioP1;P1;durP2;ratioP2;P2;SDS_P1;SDS_P2;PMS_P1;PMS_P2;Temp;Humidity;BMP_temperature;BMP_pressure;BME280_temperature;BME280_humidity;BME280_pressure;Samples;Min_cycle;Max_cycle;Signal;HPM_P1;HPM_P2
2024/03/06 00:00:52;;;;;;;3.67;2.13;;;;;;;-1.14;49.16;100986.72;4958109;28;20046;-81
2024/03/06 00:06:40;;;;;;;4.10;2.10;;;;;;;-0.82;48.99;101092.44;4913787;29;20066;-80
2024/03/06 00:09:19;;;;;;;3.13;1.63;;;;;;;-0.93;49.01;101084.16;4906958;29;20071;-79
2024/03/06 00:15:24;;;;;;;4.13;2.58;;;;;;;-1.31;48.68;101089.56;4893324;29;20059;-77
2024/03/06 00:17:50;;;;;;;4.60;2.38;;;;;;;-1.66;49.33;101068.78;4917760;29;20651;-76
2024/03/06 00:20:22;;;;;;;4.78;2.33;;;;;;;-1.92;49.55;101040.00;4921607;29;20047;-76
2024/03/06 00:23:01;;;;;;;;;;;;;;;;;;;;;
2024/03/06 00:25:39;;;;;;;3.40;2.38;;;;;;;-2.38;49.62;101004.84;4937132;29;20628;-80
2024/03/06 00:28:17;;;;;;;5.50;2.70;;;;;;;-2.19;48.95;101022.19;4900489;29;20051;-79
2024/03/06 00:30:47;;;;;;;5.10;2.60;;;;;;;-2.55;49.87;101003.81;4913600;29;20040;-78
2024/03/06 00:33:17;;;;;;;4.07;2.53;;;;;;;-2.91;49.45;100931.84;4912836;29;20051;-77
2024/03/06 00:35:44;;;;;;;8.38;2.72;;;;;;;-3.01;49.59;100949.91;4915076;29;20044;-78
2024/03/06 00:38:10;;;;;;;3.63;2.65;;;;;;;-3.12;49.91;100924.59;4911200;29;20091;-82
2024/03/06 00:40:39;;;;;;;4.10;2.50;;;;;;;-2.64;49.54;101005.75;4913745;29;20047;-79
2024/03/06 00:43:06;;;;;;;4.35;2.42;;;;;;;-2.63;49.67;101021.13;4909923;29;20115;-79
2024/03/06 00:45:35;;;;;;;3.25;2.60;;;;;;;-2.18;49.74;101092.81;4928642;29;20043;-80
2024/03/06 00:48:04;;;;;;;5.88;2.70;;;;;;;-2.30;49.93;101076.72;4929820;29;20043;-81
2024/03/06 00:50:30;;;;;;;5.38;2.85;;;;;;;-2.51;49.99;101060.94;4886361;29;20056;-82
2024/03/06 00:52:59;;;;;;;6.53;2.65;;;;;;;-3.00;50.04;100989.88;4909315;29;20052;-79
2024/03/06 00:55:26;;;;;;;5.18;2.42;;;;;;;-2.57;49.86;101076.75;4915710;29;20111;-80
2024/03/06 00:57:52;;;;;;;4.18;2.55;;;;;;;-2.85;50.08;101041.81;4899219;29;20531;-80
2024/03/06 01:00:22;;;;;;;5.20;2.28;;;;;;;-3.00;49.87;101011.13;4899138;29;20052;-80
2024/03/06 01:02:49;;;;;;;6.80;2.40;;;;;;;-2.55;50.07;101099.78;4898384;29;20040;-78
2024/03/06 01:05:16;;;;;;;6.15;2.63;;;;;;;-2.78;50.32;101078.75;4922611;29;20384;-78
2024/03/06 01:07:47;;;;;;;6.50;3.08;;;;;;;-3.29;50.58;101004.13;4913407;29;20047;-79
2024/03/06 01:10:13;;;;;;;6.15;2.88;;;;;;;-3.06;50.42;101052.34;4899746;29;20130;-79
2024/03/06 01:12:40;;;;;;;4.80;3.00;;;;;;;-3.01;50.10;101067.06;4880561;29;20040;-80
2024/03/06 01:15:08;;;;;;;6.90;2.47;;;;;;;-3.45;50.56;100985.28;4897831;29;20047;-79
2024/03/06 01:17:34;;;;;;;4.95;2.35;;;;;;;-3.15;50.45;101041.56;4898853;29;20506;-80
2024/03/06 01:20:06;;;;;;;5.82;2.35;;;;;;;-3.86;50.39;100935.06;4896999;29;20143;-80
2024/03/06 01:22:39;;;;;;;6.75;3.13;;;;;;;-3.85;50.30;100942.78;4911779;29;20035;-80
2024/03/06 01:25:09;;;;;;;8.40;2.92;;;;;;;-3.30;50.69;101061.78;4912056;29;20054;-80
2024/03/06 01:27:35;;;;;;;6.68;2.60;;;;;;;-3.07;50.54;101088.81;4898480;29;20487;-81
2024/03/06 01:30:02;;;;;;;5.28;2.63;;;;;;;-3.74;50.27;100996.91;4912518;29;20051;-82
2024/03/06 01:32:30;;;;;;;4.85;2.70;;;;;;;-3.66;50.57;101011.06;4867710;29;20059;-81
2024/03/06 01:34:56;;;;;;;9.27;2.60;;;;;;;-3.58;50.85;101029.38;4913296;29;20116;-78
2024/03/06 01:37:26;;;;;;;8.38;2.65;;;;;;;-3.46;50.61;101049.69;4897068;29;20040;-77
2024/03/06 01:39:56;;;;;;;7.13;3.00;;;;;;;-3.18;50.75;101097.38;4899469;29;20050;-79
2024/03/06 01:42:22;;;;;;;6.13;2.70;;;;;;;-3.50;51.04;101050.25;4877842;29;20107;-77
2024/03/06 01:44:48;;;;;;;7.68;3.30;;;;;;;-4.03;51.09;100969.50;4901714;29;20040;-78
2024/03/06 01:47:18;;;;;;;7.13;3.67;;;;;;;-3.26;51.05;101107.03;4900605;29;20380;-78
2024/03/06 01:49:45;;;;;;;9.20;4.32;;;;;;;-3.58;51.03;101044.66;4885710;29;20040;-79
2024/03/06 01:52:14;;;;;;;10.13;4.25;;;;;;;-4.11;51.05;100974.94;4900485;29;20507;-80
2024/03/06 01:54:42;;;;;;;10.60;5.28;;;;;;;-3.68;50.81;101035.50;4885944;29;20035;-80
2024/03/06 01:57:11;;;;;;;8.90;4.25;;;;;;;-4.33;51.01;100942.06;4884718;29;20045;-79
2024/03/06 01:59:37;;;;;;;12.43;5.63;;;;;;;-3.67;51.14;101061.81;4915672;29;20044;-80
2024/03/06 02:02:06;;;;;;;14.10;6.38;;;;;;;-4.18;50.92;100984.56;4919960;29;20410;-83
2024/03/06 02:04:32;;;;;;;16.35;6.75;;;;;;;-4.04;51.32;101016.91;4905241;29;20503;-83
2024/03/06 02:06:59;;;;;;;20.63;7.22;;;;;;;-3.65;51.52;101089.16;4888854;29;20036;-82
2024/03/06 02:09:25;;;;;;;40.95;13.73;;;;;;;-3.69;51.50;101077.00;4920070;29;20045;-83
2024/03/06 02:11:52;;;;;;;65.95;19.30;;;;;;;-4.07;51.51;101037.03;4923470;29;20045;-83
2024/03/06 02:14:18;;;;;;;46.88;16.30;;;;;;;-4.49;51.51;100959.53;4922275;29;20050;-81
2024/03/06 02:17:08;;;;;;;42.72;14.23;;;;;;;-3.62;51.60;101108.84;4895310;29;20629;-82
2024/03/06 02:19:43;;;;;;;68.75;19.75;;;;;;;-4.67;51.36;100929.53;4899288;29;20024;-80
2024/03/06 02:22:24;;;;;;;74.68;21.20;;;;;;;-3.96;50.87;101064.13;4926726;29;20459;-81
2024/03/06 02:24:54;;;;;;;63.28;19.15;;;;;;;-3.69;50.90;101115.16;4971449;23;20061;-82
2024/03/06 02:27:21;;;;;;;54.78;17.85;;;;;;;-4.56;51.56;100992.16;4956449;28;20105;-79
2024/03/06 02:29:47;;;;;;;33.10;12.82;;;;;;;-4.76;51.39;100959.38;4970235;28;20046;-79
2024/03/06 02:32:18;;;;;;;27.33;9.57;;;;;;;-4.64;51.22;100975.47;4956069;28;20052;-80
2024/03/06 02:34:46;;;;;;;24.05;9.07;;;;;;;-3.93;51.69;101093.97;4959448;28;20054;-82
2024/03/06 02:37:16;;;;;;;13.70;6.10;;;;;;;-3.96;51.06;101092.09;4928439;28;20097;-82
2024/03/06 02:39:46;;;;;;;12.88;5.30;;;;;;;-4.34;51.38;101031.81;4954529;28;20046;-74
2024/03/06 02:42:14;;;;;;;12.85;5.55;;;;;;;-4.00;51.37;101096.88;4971277;28;20097;-77
2024/03/06 02:44:40;;;;;;;12.25;5.13;;;;;;;-4.25;51.54;101046.81;4939076;28;20049;-77
2024/03/06 02:47:09;;;;;;;13.93;5.50;;;;;;;-3.96;51.27;101102.28;4969615;28;20058;-77
2024/03/06 02:49:38;;;;;;;15.80;5.28;;;;;;;-4.05;51.43;101088.03;4951884;28;20039;-78
2024/03/06 02:52:11;;;;;;;12.63;5.30;;;;;;;-4.40;51.58;101041.53;4967171;28;20417;-80
2024/03/06 02:54:41;;;;;;;14.60;5.88;;;;;;;-4.52;51.16;101031.38;4952738;28;20089;-74
2024/03/06 02:57:07;;;;;;;11.23;5.53;;;;;;;-5.07;50.89;100942.78;4967030;28;20109;-78
2024/03/06 02:59:33;;;;;;;12.55;5.38;;;;;;;-4.39;51.64;101083.97;4939290;28;20165;-79
2024/03/06 03:02:00;;;;;;;13.95;6.03;;;;;;;-4.45;51.68;101074.25;4951670;28;20053;-76
2024/03/06 03:04:26;;;;;;;18.08;5.97;;;;;;;-4.68;51.50;101047.16;4969187;28;20421;-77
2024/03/06 03:06:52;;;;;;;14.32;5.97;;;;;;;-4.09;51.80;101155.59;4968533;28;20050;-77
2024/03/06 03:09:23;;;;;;;19.58;5.50;;;;;;;-4.29;51.60;101129.59;4937153;28;20042;-75
2024/03/06 03:11:50;;;;;;;13.10;5.38;;;;;;;-4.16;52.09;101177.13;4968980;28;20043;-77
2024/03/06 03:14:16;;;;;;;13.63;5.20;;;;;;;-5.33;51.38;100968.81;4986054;28;20050;-75
2024/03/06 03:16:44;;;;;;;11.45;4.97;;;;;;;-4.45;51.65;101126.72;4967696;28;20073;-76
2024/03/06 03:19:10;;;;;;;9.77;5.30;;;;;;;-4.48;51.75;101139.19;4939131;28;20535;-77
2024/03/06 03:21:37;;;;;;;10.55;5.38;;;;;;;-4.54;51.26;101114.22;4953228;28;20043;-76
2024/03/06 03:24:04;;;;;;;11.90;5.50;;;;;;;-4.66;51.84;101098.97;4966663;28;20050;-76
2024/03/06 03:26:30;;;;;;;11.98;5.72;;;;;;;-4.90;51.50;101076.06;4952320;28;20047;-74
2024/03/06 03:28:56;;;;;;;13.32;5.40;;;;;;;-4.87;51.55;101068.69;4983818;28;20498;-75
2024/03/06 03:31:23;;;;;;;12.55;5.07;;;;;;;-4.49;51.40;101142.50;4952532;28;20137;-76
2024/03/06 03:33:49;;;;;;;7.50;4.15;;;;;;;-4.84;51.59;101094.31;4923383;28;20047;-77
2024/03/06 03:36:15;;;;;;;10.57;4.95;;;;;;;-4.75;51.51;101124.59;4950233;28;20073;-76
2024/03/06 03:38:42;;;;;;;11.00;4.65;;;;;;;-4.52;51.46;101162.63;4968973;28;20161;-76
2024/03/06 03:41:09;;;;;;;10.48;4.60;;;;;;;-4.72;52.04;101142.59;4939475;28;20046;-76
2024/03/06 03:43:35;;;;;;;8.90;4.53;;;;;;;-4.90;52.01;101108.22;4951204;28;20112;-76
2024/03/06 03:46:06;;;;;;;10.05;5.35;;;;;;;-5.12;52.00;101082.88;4950356;28;20129;-75
2024/03/06 03:48:36;;;;;;;8.98;4.78;;;;;;;-4.61;52.01;101180.59;4948533;28;20057;-73
2024/03/06 03:51:07;;;;;;;7.40;4.13;;;;;;;-4.72;51.66;101154.41;4937878;28;20154;-74
2024/03/06 03:53:33;;;;;;;10.80;4.85;;;;;;;-4.86;51.91;101133.94;4965069;28;20049;-76
2024/03/06 03:56:00;;;;;;;10.20;4.65;;;;;;;-5.23;51.83;101069.38;4983641;28;20054;-77
2024/03/06 03:58:26;;;;;;;11.32;4.22;;;;;;;-4.96;51.81;101121.31;4950746;28;20135;-76
2024/03/06 04:00:54;;;;;;;7.40;3.85;;;;;;;-5.08;52.34;101102.63;4983936;28;20053;-78
2024/03/06 04:03:21;;;;;;;7.68;4.00;;;;;;;-4.89;52.06;101148.06;4936250;28;20454;-76
2024/03/06 04:05:51;;;;;;;10.75;3.67;;;;;;;-5.23;52.43;101082.06;4948343;28;20097;-74
2024/03/06 04:08:17;;;;;;;7.82;3.50;;;;;;;-4.98;51.73;101125.41;4982774;28;20030;-75
2024/03/06 04:10:45;;;;;;;7.38;3.63;;;;;;;-4.73;51.90;101163.69;4947295;28;20052;-79
2024/03/06 04:13:12;;;;;;;7.35;3.55;;;;;;;-4.65;52.19;101184.56;4927921;28;20046;-78
2024/03/06 04:15:41;;;;;;;6.55;3.30;;;;;;;-5.09;52.31;101085.63;4966683;28;20519;-79
2024/03/06 04:18:10;;;;;;;6.88;3.67;;;;;;;-4.57;51.84;101185.16;4951623;28;20051;-78
2024/03/06 04:20:45;;;;;;;8.25;3.60;;;;;;;-5.66;52.58;100978.25;4956994;28;20085;-79
2024/03/06 04:23:20;;;;;;;6.13;3.25;;;;;;;-4.35;51.99;101181.66;4940730;28;20150;-77
2024/03/06 04:25:48;;;;;;;7.57;3.88;;;;;;;-4.42;52.13;101153.25;4972350;28;20035;-79
2024/03/06 04:28:15;;;;;;;6.22;3.38;;;;;;;-4.12;52.04;101184.22;4938153;28;20042;-79
2024/03/06 04:30:46;;;;;;;9.57;3.33;;;;;;;-5.04;52.03;100995.47;4955734;28;20152;-78
2024/03/06 04:33:14;;;;;;;6.68;3.20;;;;;;;-3.93;51.94;101170.28;4952985;28;20050;-76
2024/03/06 04:35:48;;;;;;;7.97;3.70;;;;;;;-4.28;52.02;101077.97;4951627;28;20203;-77
2024/03/06 04:38:16;;;;;;;7.28;3.20;;;;;;;-3.48;52.24;101168.34;4956428;28;20043;-80
2024/03/06 04:40:43;;;;;;;8.50;3.40;;;;;;;-3.25;52.00;101171.59;4957989;28;20070;-85
2024/03/06 04:43:14;;;;;;;10.45;3.47;;;;;;;-3.46;51.76;101070.06;4965219;28;20046;-77
2024/03/06 04:45:41;;;;;;;6.32;2.78;;;;;;;-2.08;51.57;101178.47;4952226;28;20097;-78
2024/03/06 04:48:08;;;;;;;6.95;2.78;;;;;;;-1.58;50.72;101016.50;4953795;28;20049;-77
2024/03/06 04:50:34;;;;;;;7.97;2.90;;;;;;;0.36;50.27;101098.94;4922711;28;20034;-77
2024/03/06 04:53:00;;;;;;;7.53;2.90;;;;;;;1.49;47.89;101084.13;4963382;28;20039;-78
2024/03/06 04:55:30;;;;;;;13.55;3.45;;;;;;;2.62;47.75;101093.56;4968552;28;20104;-78
2024/03/06 04:57:57;;;;;;;8.95;2.67;;;;;;;3.98;46.45;101146.34;4953647;28;20430;-79
2024/03/06 05:00:28;;;;;;;7.55;2.83;;;;;;;4.45;45.40;101051.94;4962228;28;20449;-78
2024/03/06 05:02:57;;;;;;;7.50;3.00;;;;;;;5.31;43.97;101035.06;4961779;28;20049;-82
2024/03/06 05:05:24;;;;;;;5.25;2.60;;;;;;;6.65;42.00;101135.59;4962917;28;20051;-85
2024/03/06 05:07:52;;;;;;;9.45;3.08;;;;;;;7.23;41.25;101127.69;4962146;28;20039;-83
2024/03/06 05:10:22;;;;;;;12.18;3.10;;;;;;;7.60;40.29;101065.56;4937696;28;20093;-85
2024/03/06 05:12:51;;;;;;;5.47;3.00;;;;;;;8.09;38.91;100988.88;4966054;28;20060;-84
2024/03/06 05:15:19;;;;;;;8.85;3.30;;;;;;;9.15;37.20;101055.75;4967308;28;20498;-85
2024/03/06 05:17:46;;;;;;;6.22;3.30;;;;;;;9.60;35.84;101046.91;4935527;28;20039;-87
2024/03/06 05:20:16;;;;;;;6.40;3.63;;;;;;;10.02;34.66;101054.44;4933034;28;20046;-84
2024/03/06 05:23:09;;;;;;;5.32;3.42;;;;;;;10.94;34.38;101091.13;4960899;28;20450;-83
2024/03/06 05:26:09;;;;;;;9.55;3.50;;;;;;;12.21;33.36;101117.34;4960068;28;20077;-83
2024/03/06 05:28:51;;;;;;;8.32;3.78;;;;;;;12.13;32.20;101014.66;4930490;28;20089;-83
2024/03/06 05:31:19;;;;;;;7.13;3.60;;;;;;;12.79;31.08;101001.78;4969244;28;20069;-84
2024/03/06 05:33:51;;;;;;;6.72;3.42;;;;;;;13.83;30.69;101056.63;4963886;28;20098;-86
2024/03/06 05:36:20;;;;;;;8.63;3.38;;;;;;;14.23;29.57;100992.81;4963824;28;20043;-82
2024/03/06 05:38:52;;;;;;;10.63;3.90;;;;;;;15.41;28.64;101116.97;4963522;28;20102;-84
2024/03/06 05:41:19;;;;;;;6.47;4.00;;;;;;;15.57;27.72;101054.75;4957727;28;20050;-79
2024/03/06 05:43:45;;;;;;;10.68;3.85;;;;;;;15.95;27.08;101061.38;4961084;28;20133;-82
2024/03/06 05:46:12;;;;;;;10.18;3.95;;;;;;;16.76;26.19;101124.31;4945716;28;20054;-76
2024/03/06 05:48:38;;;;;;;13.73;4.88;;;;;;;16.94;25.79;101101.28;4963015;28;20043;-76
2024/03/06 05:51:05;;;;;;;12.00;4.45;;;;;;;17.04;25.83;101034.56;4982055;28;20047;-76
2024/03/06 05:53:36;;;;;;;12.50;4.38;;;;;;;17.52;24.44;101020.59;4946368;28;20101;-76
2024/03/06 05:56:05;;;;;;;13.70;4.47;;;;;;;17.98;24.02;100997.81;4982432;28;20105;-77
2024/03/06 05:58:32;;;;;;;10.73;4.65;;;;;;;19.01;23.63;101106.28;4945234;28;20043;-77
2024/03/06 06:00:59;;;;;;;10.02;5.00;;;;;;;19.30;23.05;101070.44;4940177;28;20125;-80
2024/03/06 06:03:25;;;;;;;13.57;5.10;;;;;;;19.57;22.75;101059.13;4989962;28;20030;-80
2024/03/06 06:06:02;;;;;;;12.52;4.97;;;;;;;19.91;22.60;101028.34;4972407;28;20054;-80
2024/03/06 06:08:31;;;;;;;13.68;4.80;;;;;;;20.35;21.80;101022.66;4970407;28;20121;-79
2024/03/06 06:11:15;;;;;;;13.60;4.82;;;;;;;21.01;21.28;101025.03;4968350;28;20046;-76
2024/03/06 06:13:41;;;;;;;9.02;5.32;;;;;;;22.12;20.79;101070.63;4984486;28;20571;-76
2024/03/06 06:16:13;;;;;;;8.70;4.60;;;;;;;22.09;20.24;100996.53;4967131;28;20039;-77
2024/03/06 06:18:41;;;;;;;12.13;5.18;;;;;;;22.80;19.71;101075.16;4962891;28;20584;-77
2024/03/06 06:21:08;;;;;;;7.22;4.40;;;;;;;23.25;19.39;101057.41;4950848;28;20138;-74
2024/03/06 06:23:35;;;;;;;8.68;4.65;;;;;;;24.10;18.81;101105.19;4963961;28;20043;-79
2024/03/06 06:26:04;;;;;;;8.02;4.90;;;;;;;24.35;18.58;101079.19;4966586;28;20054;-75
2024/03/06 06:28:30;;;;;;;9.20;5.28;;;;;;;25.07;18.10;101111.31;4959023;28;20150;-73
2024/03/06 06:30:57;;;;;;;9.85;5.10;;;;;;;25.40;18.32;101075.06;4948887;28;20046;-71
2024/03/06 06:33:23;;;;;;;9.27;5.10;;;;;;;25.83;17.64;101045.31;4920756;28;20053;-71
2024/03/06 06:35:58;;;;;;;8.27;4.70;;;;;;;26.54;17.45;101064.66;4947625;28;20125;-73
2024/03/06 06:38:30;;;;;;;10.27;4.90;;;;;;;27.01;16.72;101057.56;4930332;28;20137;-74
2024/03/06 06:41:00;;;;;;;8.88;4.57;;;;;;;25.15;16.19;101008.88;4946217;28;20046;-73
2024/03/06 06:43:32;;;;;;;8.82;4.65;;;;;;;23.12;16.66;101066.81;4959645;28;20031;-74
2024/03/06 06:46:08;;;;;;;13.48;4.55;;;;;;;20.71;17.14;101085.03;4961157;28;20049;-74
2024/03/06 06:48:37;;;;;;;5.95;3.75;;;;;;;18.83;17.75;101087.31;4963954;28;20513;-77
2024/03/06 06:51:03;;;;;;;10.75;4.65;;;;;;;17.86;18.51;101105.94;4962794;28;20051;-77
2024/03/06 06:53:32;;;;;;;14.13;5.10;;;;;;;17.29;18.83;101137.59;4935616;28;20039;-74
2024/03/06 06:55:59;;;;;;;10.35;4.60;;;;;;;17.67;19.23;101079.97;4929431;28;20051;-71
2024/03/06 06:58:26;;;;;;;8.77;4.45;;;;;;;19.25;19.25;101095.16;4945664;28;20130;-71
2024/03/06 07:01:03;;;;;;;10.20;4.05;;;;;;;20.14;18.63;101124.56;4946017;28;20796;-74
2024/03/06 07:03:30;;;;;;;6.53;4.80;;;;;;;20.02;17.97;101115.19;4977539;28;20118;-74
2024/03/06 07:05:57;;;;;;;8.65;4.60;;;;;;;18.58;18.22;101068.53;4945505;28;20047;-73
2024/03/06 07:08:24;;;;;;;8.52;4.57;;;;;;;17.83;18.46;101077.03;4940204;28;20039;-74
2024/03/06 07:10:50;;;;;;;8.60;4.50;;;;;;;17.34;18.75;101127.00;4961801;28;20058;-73
2024/03/06 07:13:19;;;;;;;8.68;4.60;;;;;;;16.26;18.96;101061.03;4960936;28;22251;-75
2024/03/06 07:15:45;;;;;;;7.60;4.45;;;;;;;15.42;19.36;101059.28;4946050;28;20047;-73
2024/03/06 07:18:11;;;;;;;10.05;4.70;;;;;;;15.22;19.47;101138.09;4934440;28;20105;-72
2024/03/06 07:20:40;;;;;;;5.72;4.30;;;;;;;14.40;20.02;101136.75;4962395;28;20046;-74
2024/03/06 07:23:07;;;;;;;7.75;4.68;;;;;;;13.86;20.22;101124.63;4944594;28;20143;-73
2024/03/06 07:25:33;;;;;;;6.13;3.53;;;;;;;13.47;20.62;101109.84;4962868;28;20055;-69
2024/03/06 07:27:59;;;;;;;8.98;4.00;;;;;;;13.53;20.97;101118.56;4962432;28;20077;-70
2024/03/06 07:30:25;;;;;;;7.20;4.07;;;;;;;13.39;20.82;101146.41;4913565;28;20096;-71
2024/03/06 07:32:51;;;;;;;6.88;4.03;;;;;;;13.03;21.26;101112.38;4976935;28;20628;-72
2024/03/06 07:35:18;;;;;;;6.18;3.70;;;;;;;13.44;21.58;101152.56;4956390;28;20043;-73
2024/03/06 07:37:44;;;;;;;7.88;3.67;;;;;;;13.68;21.51;101150.81;4978500;28;20035;-71
2024/03/06 07:40:11;;;;;;;6.85;3.75;;;;;;;13.76;21.25;101143.84;4977303;28;20051;-70
2024/03/06 07:42:38;;;;;;;7.13;3.85;;;;;;;13.93;21.67;101145.56;4959628;28;20502;-70
2024/03/06 07:45:08;;;;;;;8.55;3.80;;;;;;;14.07;21.49;101159.50;4961460;28;20049;-70
2024/03/06 07:47:37;;;;;;;8.40;3.75;;;;;;;14.09;21.51;101155.13;4960317;28;20032;-70
2024/03/06 07:50:06;;;;;;;6.97;3.80;;;;;;;13.57;21.66;101137.75;4945143;28;20138;-69
2024/03/06 07:52:32;;;;;;;5.43;3.38;;;;;;;13.24;21.82;101129.00;4961754;28;20125;-70
2024/03/06 07:55:03;;;;;;;5.28;3.35;;;;;;;12.79;21.92;101116.72;4930399;28;20050;-69
2024/03/06 07:57:29;;;;;;;9.13;3.72;;;;;;;12.96;22.53;101163.75;4943464;28;20035;-71
2024/03/06 07:59:55;;;;;;;9.75;3.35;;;;;;;12.56;22.22;101120.97;4963020;28;20042;-69
2024/03/06 08:02:21;;;;;;;10.27;4.15;;;;;;;12.45;22.29;101155.72;4941868;28;20047;-69
2024/03/06 08:04:48;;;;;;;5.93;3.90;;;;;;;11.96;22.57;101140.63;4922822;28;20051;-70
2024/03/06 08:07:21;;;;;;;8.43;3.47;;;;;;;11.58;22.88;101154.25;4943383;28;20317;-69
2024/03/06 08:09:47;;;;;;;7.45;3.38;;;;;;;11.07;23.00;101146.81;4943025;28;20133;-71
2024/03/06 08:12:16;;;;;;;8.23;4.00;;;;;;;10.80;23.31;101160.41;4944259;28;20070;-70
2024/03/06 08:14:45;;;;;;;7.03;3.55;;;;;;;10.39;23.50;101144.25;4974838;28;20051;-69
2024/03/06 08:17:13;;;;;;;9.68;4.65;;;;;;;9.73;24.03;101170.13;4943979;28;20512;-70
2024/03/06 08:19:39;;;;;;;14.35;3.70;;;;;;;9.01;24.26;101138.59;4943561;28;20054;-70
2024/03/06 08:22:06;;;;;;;7.82;3.17;;;;;;;9.16;24.51;101171.72;4917591;28;20556;-68
2024/03/06 08:24:32;;;;;;;8.85;3.45;;;;;;;9.02;25.04;101167.16;4959034;28;21768;-69
2024/03/06 08:26:58;;;;;;;9.25;3.83;;;;;;;8.64;24.97;101098.91;4930125;28;20071;-70
2024/03/06 08:29:26;;;;;;;5.88;3.85;;;;;;;9.04;25.20;101175.84;4959765;28;20447;-70
2024/03/06 08:31:57;;;;;;;8.35;3.80;;;;;;;9.08;25.35;101165.53;4960711;28;20379;-70
2024/03/06 08:34:26;;;;;;;7.95;3.40;;;;;;;9.08;25.34;101168.13;4946056;28;20466;-70
2024/03/06 08:36:53;;;;;;;7.28;3.47;;;;;;;9.00;25.35;101155.88;4945377;28;20061;-68
2024/03/06 08:39:19;;;;;;;8.57;3.00;;;;;;;8.86;25.49;101141.75;4942573;28;20050;-71
2024/03/06 08:41:45;;;;;;;4.32;3.00;;;;;;;8.72;25.42;101129.34;4946031;28;20458;-71
2024/03/06 08:44:11;;;;;;;5.05;2.88;;;;;;;8.89;25.64;101160.00;4959689;28;20047;-70
2024/03/06 08:46:37;;;;;;;6.47;3.40;;;;;;;8.51;25.67;101118.53;4961729;28;20058;-71
2024/03/06 08:49:03;;;;;;;5.88;2.95;;;;;;;8.70;25.96;101163.91;4929406;28;20039;-69
2024/03/06 08:51:29;;;;;;;4.75;2.95;;;;;;;8.38;25.67;101136.44;4943951;28;20058;-70
2024/03/06 08:53:55;;;;;;;12.35;3.67;;;;;;;8.31;26.15;101176.03;4942740;28;20062;-72
2024/03/06 08:56:21;;;;;;;5.80;3.42;;;;;;;7.79;26.25;101118.69;4923199;28;20048;-71
2024/03/06 08:58:47;;;;;;;11.80;3.42;;;;;;;7.91;26.47;101165.63;4959454;28;20075;-70
2024/03/06 09:01:13;;;;;;;9.38;3.80;;;;;;;7.72;26.55;101148.75;4925018;28;20101;-70
2024/03/06 09:03:39;;;;;;;9.23;4.30;;;;;;;7.78;26.88;101172.22;4926285;28;21811;-70
2024/03/06 09:06:05;;;;;;;5.90;3.38;;;;;;;7.63;26.77;101130.38;4933575;28;20042;-71
2024/03/06 09:08:32;;;;;;;7.00;3.20;;;;;;;7.69;27.11;101172.00;4943841;28;20035;-70
2024/03/06 09:10:58;;;;;;;6.80;3.10;;;;;;;7.66;27.11;101154.66;4941053;28;20035;-70
2024/03/06 09:13:26;;;;;;;8.63;2.80;;;;;;;7.48;26.86;101118.81;4957269;28;20383;-69
2024/03/06 09:15:52;;;;;;;6.20;2.75;;;;;;;7.41;27.22;101090.13;4936362;28;20039;-70
2024/03/06 09:18:18;;;;;;;5.53;2.85;;;;;;;7.82;27.22;101140.38;4946133;28;20054;-67
2024/03/06 09:20:45;;;;;;;7.28;3.17;;;;;;;8.13;27.37;101151.44;4950743;28;20493;-72
2024/03/06 09:23:11;;;;;;;11.75;3.10;;;;;;;8.10;27.21;101125.44;4943312;28;20055;-72
2024/03/06 09:25:37;;;;;;;3.72;2.92;;;;;;;8.09;27.03;101128.00;4948618;28;20039;-74
2024/03/06 09:31:00;;;;;;;7.53;3.45;;;;;;;6.97;27.15;100958.75;4959634;28;20051;-77
2024/03/06 09:33:35;;;;;;;9.88;3.97;;;;;;;7.08;27.28;101007.34;4945735;28;20873;-76
2024/03/06 09:36:02;;;;;;;7.53;3.20;;;;;;;6.96;27.43;101003.56;4951691;28;20142;-78
2024/03/06 09:38:29;;;;;;;6.93;3.50;;;;;;;7.80;27.11;101134.28;4934774;28;20604;-79
2024/03/06 09:40:56;;;;;;;7.32;3.53;;;;;;;7.49;27.67;101073.94;4935060;28;20122;-78
2024/03/06 09:43:31;;;;;;;8.60;3.20;;;;;;;7.82;27.62;101091.13;4945401;28;20054;-76
2024/03/06 09:45:57;;;;;;;7.32;3.55;;;;;;;8.19;27.09;101090.19;4947409;28;20069;-76
2024/03/06 09:48:28;;;;;;;7.25;3.45;;;;;;;8.02;27.22;101044.03;4932987;28;20046;-78
2024/03/06 09:51:13;;;;;;;5.85;2.90;;;;;;;8.87;27.29;101144.38;4964492;28;20047;-78
2024/03/06 09:53:49;;;;;;;7.00;3.38;;;;;;;8.42;27.38;101031.91;4941761;28;20047;-78
2024/03/06 09:56:47;;;;;;;6.68;3.00;;;;;;;7.93;27.08;100968.66;4909764;28;20079;-77
2024/03/06 09:59:38;;;;;;;7.45;3.10;;;;;;;8.33;27.17;101046.41;4940659;28;20567;-77
2024/03/06 10:02:41;;;;;;;6.60;2.92;;;;;;;8.85;27.01;101130.47;4943559;28;20035;-79
2024/03/06 10:05:28;;;;;;;12.32;2.85;;;;;;;8.35;27.08;101042.97;4966949;28;20094;-81
2024/03/06 10:08:11;;;;;;;9.32;3.22;;;;;;;8.19;27.00;100965.72;4948630;28;20142;-80
2024/03/06 10:10:50;;;;;;;5.53;3.05;;;;;;;8.55;27.15;100993.22;4949812;28;20050;-78
2024/03/06 10:13:29;;;;;;;8.85;4.13;;;;;;;8.57;26.60;100956.13;4948522;28;20508;-81
2024/03/06 10:16:40;;;;;;;;;;;;;;;;;;;;;
2024/03/06 10:19:50;;;;;;;5.22;3.03;;;;;;;9.57;27.08;101087.56;4936392;28;20047;-73
2024/03/06 10:22:17;;;;;;;10.35;3.03;;;;;;;9.78;27.14;101097.44;4945871;28;20387;-74
2024/03/06 10:24:43;;;;;;;9.43;3.17;;;;;;;9.72;26.51;101072.22;4922606;28;20147;-76
2024/03/06 10:27:17;;;;;;;8.35;3.45;;;;;;;9.40;26.89;101076.91;4949995;29;20031;-77
2024/03/06 10:29:44;;;;;;;5.17;2.80;;;;;;;9.71;26.68;101114.66;4919180;29;20153;-75
2024/03/06 10:32:19;;;;;;;9.48;3.00;;;;;;;9.53;26.90;101039.00;4945070;28;20291;-76
2024/03/06 10:34:48;;;;;;;5.60;2.65;;;;;;;9.83;27.06;101055.91;4933882;29;20121;-76
2024/03/06 10:37:17;;;;;;;12.75;3.85;;;;;;;9.32;26.52;100960.78;4947449;28;20039;-77
2024/03/06 10:39:48;;;;;;;7.18;3.25;;;;;;;9.16;26.95;100988.22;4912466;29;20039;-76
2024/03/06 10:42:16;;;;;;;6.55;3.08;;;;;;;9.94;26.95;101057.81;4947675;28;20047;-77
2024/03/06 10:44:52;;;;;;;8.30;3.40;;;;;;;9.91;26.89;101034.34;4931051;29;20039;-74
2024/03/06 10:47:54;;;;;;;7.15;3.28;;;;;;;9.79;26.50;101010.81;4962290;28;20050;-75
2024/03/06 10:50:59;;;;;;;6.68;3.00;;;;;;;9.51;26.69;100976.63;4938844;28;20445;-78
2024/03/06 10:54:11;;;;;;;9.77;3.05;;;;;;;10.25;26.85;101037.41;4921409;29;20493;-72
2024/03/06 10:57:07;;;;;;;13.18;3.50;;;;;;;10.06;26.34;100999.00;4914036;29;20049;-75
2024/03/06 11:00:18;;;;;;;6.75;3.42;;;;;;;9.85;26.58;100984.00;4934058;28;20045;-75
2024/03/06 11:02:49;;;;;;;5.95;3.17;;;;;;;10.39;26.44;101089.63;4918270;29;20130;-77
2024/03/06 11:06:03;;;;;;;7.18;3.10;;;;;;;9.54;26.09;100942.91;4946683;28;20042;-76
2024/03/06 11:08:35;;;;;;;10.20;3.28;;;;;;;9.92;26.07;101033.50;4894809;28;20060;-76
2024/03/06 11:11:24;;;;;;;7.95;3.83;;;;;;;10.26;26.03;101090.31;4930802;29;20118;-75
2024/03/06 11:13:55;;;;;;;6.65;2.97;;;;;;;10.35;25.85;101077.41;4931508;28;20070;-74
2024/03/06 11:16:28;;;;;;;5.30;3.20;;;;;;;10.27;25.91;101086.84;4902026;28;20039;-74
2024/03/06 11:19:09;;;;;;;7.43;3.20;;;;;;;9.89;25.92;101069.84;4948623;28;20058;-73
2024/03/06 11:21:45;;;;;;;8.90;3.15;;;;;;;9.78;25.48;101093.09;4957171;28;20050;-75
2024/03/06 11:24:38;;;;;;;8.15;3.20;;;;;;;9.19;26.30;101076.59;4926733;28;20396;-74
2024/03/06 11:28:24;;;;;;;5.40;2.90;;;;;;;9.23;26.19;101081.84;4921632;28;20078;-73
2024/03/06 11:31:00;;;;;;;5.80;3.15;;;;;;;8.89;25.99;101075.19;4911335;28;20414;-74
2024/03/06 11:33:45;;;;;;;7.43;2.88;;;;;;;8.77;26.33;101062.00;4955477;28;20046;-76
2024/03/06 11:36:22;;;;;;;8.43;2.92;;;;;;;8.51;26.28;101033.81;4951763;28;20039;-74
2024/03/06 11:38:53;;;;;;;10.48;3.08;;;;;;;8.82;26.35;101078.53;4947877;28;20043;-74
2024/03/06 11:41:24;;;;;;;6.32;3.20;;;;;;;8.29;26.34;101015.22;4915613;28;20051;-75
2024/03/06 11:43:53;;;;;;;5.05;2.83;;;;;;;8.00;26.43;100960.19;4913901;28;20049;-74
2024/03/06 11:46:21;;;;;;;8.15;2.83;;;;;;;8.08;26.24;100997.50;4947541;28;20708;-73
2024/03/06 11:48:56;;;;;;;9.80;2.90;;;;;;;8.25;26.30;101022.91;4944844;28;20071;-73
2024/03/06 12:00:12;;;;;;;5.25;3.08;;;;;;;8.04;26.71;101034.59;4938244;28;20094;-73
2024/03/06 12:03:05;;;;;;;4.68;2.90;;;;;;;7.94;26.90;101033.53;4944760;28;20487;-74